sensor_id;sensor_type;location;lat;lon;timestamp;temperature;humidity
14755;DHT22;7469;50.906;6.952;2022-10-31T00:01:31;13.90;99.90
14755;DHT22;7469;50.906;6.952;2022-10-31T00:04:00;14.00;99.90
14755;DHT22;7469;50.906;6.952;2022-10-31T00:06:28;13.90;99.90
14755;DHT22;7469;50.906;6.952;2022-10-31T00:08:58;13.90;99.90
14755;DHT22;7469;50.906;6.952;2022-10-31T00:11:29;13.90;99.90
14755;DHT22;7469;50.906;6.952;2022-10-31T00:13:57;13.90;99.90
14755;DHT22;7469;50.906;6.952;2022-10-31T00:16:26;13.90;99.90
14755;DHT22;7469;50.906;6.952;2022-10-31T00:18:55;13.80;99.90
14755;DHT22;7469;50.906;6.952;2022-10-31T00:21:23;13.80;99.90
14755;DHT22;7469;50.906;6.952;2022-10-31T00:23:51;13.80;99.90
14755;DHT22;7469;50.906;6.952;2022-10-31T00:26:20;13.70;99.90
14755;DHT22;7469;50.906;6.952;2022-10-31T00:28:49;13.70;99.90
14755;DHT22;7469;50.906;6.952;2022-10-31T00:31:18;13.70;99.90
14755;DHT22;7469;50.906;6.952;2022-10-31T00:33:46;13.70;99.90
14755;DHT22;7469;50.906;6.952;2022-10-31T00:36:15;13.70;99.90
14755;DHT22;7469;50.906;6.952;2022-10-31T00:38:44;13.70;99.90
14755;DHT22;7469;50.906;6.952;2022-10-31T00:41:13;13.70;99.90
14755;DHT22;7469;50.906;6.952;2022-10-31T00:43:41;13.70;99.90
14755;DHT22;7469;50.906;6.952;2022-10-31T00:46:12;13.70;99.90
14755;DHT22;7469;50.906;6.952;2022-10-31T00:48:40;13.70;99.90
14755;DHT22;7469;50.906;6.952;2022-10-31T00:51:09;13.70;99.90
14755;DHT22;7469;50.906;6.952;2022-10-31T00:53:37;13.70;99.90
14755;DHT22;7469;50.906;6.952;2022-10-31T00:56:05;13.60;99.90
14755;DHT22;7469;50.906;6.952;2022-10-31T00:58:34;13.70;99.90
14755;DHT22;7469;50.906;6.952;2022-10-31T01:01:03;13.70;99.90
14755;DHT22;7469;50.906;6.952;2022-10-31T01:03:33;13.70;99.90
14755;DHT22;7469;50.906;6.952;2022-10-31T01:06:05;13.70;99.90
14755;DHT22;7469;50.906;6.952;2022-10-31T01:08:33;13.70;99.90
14755;DHT22;7469;50.906;6.952;2022-10-31T01:11:05;13.70;99.90
14755;DHT22;7469;50.906;6.952;2022-10-31T01:13:33;13.70;99.90
14755;DHT22;7469;50.906;6.952;2022-10-31T01:16:02;13.70;99.90
14755;DHT22;7469;50.906;6.952;2022-10-31T01:18:30;13.70;99.90
14755;DHT22;7469;50.906;6.952;2022-10-31T01:21:01;13.70;99.90
14755;DHT22;7469;50.906;6.952;2022-10-31T01:23:30;13.70;99.90
14755;DHT22;7469;50.906;6.952;2022-10-31T01:26:06;13.70;99.90
14755;DHT22;7469;50.906;6.952;2022-10-31T01:28:38;13.60;99.90
14755;DHT22;7469;50.906;6.952;2022-10-31T01:31:08;13.60;99.90
14755;DHT22;7469;50.906;6.952;2022-10-31T01:33:37;13.60;99.90
14755;DHT22;7469;50.906;6.952;2022-10-31T01:36:15;13.60;99.90
14755;DHT22;7469;50.906;6.952;2022-10-31T01:38:43;13.60;99.90
14755;DHT22;7469;50.906;6.952;2022-10-31T01:41:13;13.60;99.90
14755;DHT22;7469;50.906;6.952;2022-10-31T01:43:46;13.50;99.90
14755;DHT22;7469;50.906;6.952;2022-10-31T01:46:16;13.60;99.90
14755;DHT22;7469;50.906;6.952;2022-10-31T01:48:45;13.50;99.90
14755;DHT22;7469;50.906;6.952;2022-10-31T01:51:20;13.50;99.90
14755;DHT22;7469;50.906;6.952;2022-10-31T01:53:49;13.50;99.90
14755;DHT22;7469;50.906;6.952;2022-10-31T01:56:18;13.50;99.90
14755;DHT22;7469;50.906;6.952;2022-10-31T01:58:47;13.50;99.90
14755;DHT22;7469;50.906;6.952;2022-10-31T02:01:16;13.50;99.90
14755;DHT22;7469;50.906;6.952;2022-10-31T02:03:45;13.50;99.90
14755;DHT22;7469;50.906;6.952;2022-10-31T02:06:26;13.50;99.90
14755;DHT22;7469;50.906;6.952;2022-10-31T02:08:57;13.40;99.90
14755;DHT22;7469;50.906;6.952;2022-10-31T02:11:27;13.40;99.90
14755;DHT22;7469;50.906;6.952;2022-10-31T02:13:56;13.40;99.90
14755;DHT22;7469;50.906;6.952;2022-10-31T02:16:25;13.40;99.90
14755;DHT22;7469;50.906;6.952;2022-10-31T02:18:54;13.40;99.90
14755;DHT22;7469;50.906;6.952;2022-10-31T02:21:30;13.40;99.90
14755;DHT22;7469;50.906;6.952;2022-10-31T02:24:32;13.30;99.90
14755;DHT22;7469;50.906;6.952;2022-10-31T02:27:14;13.30;99.90
14755;DHT22;7469;50.906;6.952;2022-10-31T02:30:01;13.30;99.90
14755;DHT22;7469;50.906;6.952;2022-10-31T02:32:38;13.30;99.90
14755;DHT22;7469;50.906;6.952;2022-10-31T02:35:12;13.20;99.90
14755;DHT22;7469;50.906;6.952;2022-10-31T02:37:48;13.20;99.90
14755;DHT22;7469;50.906;6.952;2022-10-31T02:40:23;13.20;99.90
14755;DHT22;7469;50.906;6.952;2022-10-31T02:42:58;13.20;99.90
14755;DHT22;7469;50.906;6.952;2022-10-31T02:45:30;13.20;99.90
14755;DHT22;7469;50.906;6.952;2022-10-31T02:48:09;13.20;99.90
14755;DHT22;7469;50.906;6.952;2022-10-31T02:50:41;13.20;99.90
14755;DHT22;7469;50.906;6.952;2022-10-31T02:53:09;13.20;99.90
14755;DHT22;7469;50.906;6.952;2022-10-31T02:55:47;13.20;99.90
14755;DHT22;7469;50.906;6.952;2022-10-31T02:58:19;13.20;99.90
14755;DHT22;7469;50.906;6.952;2022-10-31T03:00:56;13.20;99.90
14755;DHT22;7469;50.906;6.952;2022-10-31T03:03:33;13.20;99.90
14755;DHT22;7469;50.906;6.952;2022-10-31T03:06:05;13.20;99.90
14755;DHT22;7469;50.906;6.952;2022-10-31T03:08:41;13.20;99.90
14755;DHT22;7469;50.906;6.952;2022-10-31T03:11:11;13.20;99.90
14755;DHT22;7469;50.906;6.952;2022-10-31T03:13:42;13.20;99.90
14755;DHT22;7469;50.906;6.952;2022-10-31T03:16:16;13.20;99.90
14755;DHT22;7469;50.906;6.952;2022-10-31T03:18:52;13.20;99.90
14755;DHT22;7469;50.906;6.952;2022-10-31T03:21:24;13.10;99.90
14755;DHT22;7469;50.906;6.952;2022-10-31T03:23:55;13.00;99.90
14755;DHT22;7469;50.906;6.952;2022-10-31T03:26:25;13.00;99.90
14755;DHT22;7469;50.906;6.952;2022-10-31T03:28:56;13.00;99.90
14755;DHT22;7469;50.906;6.952;2022-10-31T03:31:28;13.10;99.90
14755;DHT22;7469;50.906;6.952;2022-10-31T03:34:00;13.10;99.90
14755;DHT22;7469;50.906;6.952;2022-10-31T03:36:30;13.10;99.90
14755;DHT22;7469;50.906;6.952;2022-10-31T03:39:01;13.10;99.90
14755;DHT22;7469;50.906;6.952;2022-10-31T03:41:32;13.10;99.90
14755;DHT22;7469;50.906;6.952;2022-10-31T03:44:08;13.10;99.90
14755;DHT22;7469;50.906;6.952;2022-10-31T03:46:38;13.20;99.90
14755;DHT22;7469;50.906;6.952;2022-10-31T03:49:08;13.10;99.90
14755;DHT22;7469;50.906;6.952;2022-10-31T03:51:41;13.20;99.90
14755;DHT22;7469;50.906;6.952;2022-10-31T03:54:15;13.20;99.90
14755;DHT22;7469;50.906;6.952;2022-10-31T03:56:50;13.10;99.90
14755;DHT22;7469;50.906;6.952;2022-10-31T03:59:23;13.10;99.90
14755;DHT22;7469;50.906;6.952;2022-10-31T04:01:55;13.10;99.90
14755;DHT22;7469;50.906;6.952;2022-10-31T04:04:27;13.10;99.90
14755;DHT22;7469;50.906;6.952;2022-10-31T04:06:58;13.10;99.90
14755;DHT22;7469;50.906;6.952;2022-10-31T04:09:28;13.10;99.90
14755;DHT22;7469;50.906;6.952;2022-10-31T04:11:58;13.00;99.90
14755;DHT22;7469;50.906;6.952;2022-10-31T04:14:30;13.00;99.90
14755;DHT22;7469;50.906;6.952;2022-10-31T04:17:01;13.00;99.90
14755;DHT22;7469;50.906;6.952;2022-10-31T04:19:32;13.00;99.90
14755;DHT22;7469;50.906;6.952;2022-10-31T04:22:00;13.00;99.90
14755;DHT22;7469;50.906;6.952;2022-10-31T04:24:29;13.00;99.90
14755;DHT22;7469;50.906;6.952;2022-10-31T04:26:57;13.00;99.90
14755;DHT22;7469;50.906;6.952;2022-10-31T04:29:25;12.90;99.90
14755;DHT22;7469;50.906;6.952;2022-10-31T04:31:53;12.90;99.90
14755;DHT22;7469;50.906;6.952;2022-10-31T04:34:21;12.90;99.90
14755;DHT22;7469;50.906;6.952;2022-10-31T04:36:50;12.90;99.90
14755;DHT22;7469;50.906;6.952;2022-10-31T04:39:18;12.80;99.90
14755;DHT22;7469;50.906;6.952;2022-10-31T04:41:52;12.80;99.90
14755;DHT22;7469;50.906;6.952;2022-10-31T04:44:20;12.80;99.90
14755;DHT22;7469;50.906;6.952;2022-10-31T04:46:48;12.80;99.90
14755;DHT22;7469;50.906;6.952;2022-10-31T04:49:16;12.70;99.90
14755;DHT22;7469;50.906;6.952;2022-10-31T04:51:43;12.70;99.90
14755;DHT22;7469;50.906;6.952;2022-10-31T04:54:13;12.70;99.90
14755;DHT22;7469;50.906;6.952;2022-10-31T04:56:40;12.70;99.90
14755;DHT22;7469;50.906;6.952;2022-10-31T04:59:08;12.70;99.90
14755;DHT22;7469;50.906;6.952;2022-10-31T05:01:36;12.60;99.90
14755;DHT22;7469;50.906;6.952;2022-10-31T05:04:04;12.60;99.90
14755;DHT22;7469;50.906;6.952;2022-10-31T05:06:32;12.60;99.90
14755;DHT22;7469;50.906;6.952;2022-10-31T05:09:00;12.60;99.90
14755;DHT22;7469;50.906;6.952;2022-10-31T05:11:30;12.60;99.90
14755;DHT22;7469;50.906;6.952;2022-10-31T05:13:58;12.50;99.90
14755;DHT22;7469;50.906;6.952;2022-10-31T05:16:25;12.50;99.90
14755;DHT22;7469;50.906;6.952;2022-10-31T05:18:53;12.50;99.90
14755;DHT22;7469;50.906;6.952;2022-10-31T05:21:21;12.40;99.90
14755;DHT22;7469;50.906;6.952;2022-10-31T05:23:49;12.40;99.90
14755;DHT22;7469;50.906;6.952;2022-10-31T05:26:17;12.30;99.90
14755;DHT22;7469;50.906;6.952;2022-10-31T05:28:46;12.30;99.90
14755;DHT22;7469;50.906;6.952;2022-10-31T05:31:14;12.30;99.90
14755;DHT22;7469;50.906;6.952;2022-10-31T05:33:42;12.30;99.90
14755;DHT22;7469;50.906;6.952;2022-10-31T05:36:10;12.20;99.90
14755;DHT22;7469;50.906;6.952;2022-10-31T05:38:38;12.20;99.90
14755;DHT22;7469;50.906;6.952;2022-10-31T05:41:06;12.20;99.90
14755;DHT22;7469;50.906;6.952;2022-10-31T05:43:34;12.10;99.90
14755;DHT22;7469;50.906;6.952;2022-10-31T05:46:03;12.10;99.90
14755;DHT22;7469;50.906;6.952;2022-10-31T05:48:31;12.00;99.90
14755;DHT22;7469;50.906;6.952;2022-10-31T05:50:59;12.00;99.90
14755;DHT22;7469;50.906;6.952;2022-10-31T05:53:27;12.00;99.90
14755;DHT22;7469;50.906;6.952;2022-10-31T05:55:55;11.90;99.90
14755;DHT22;7469;50.906;6.952;2022-10-31T05:58:22;11.90;99.90
14755;DHT22;7469;50.906;6.952;2022-10-31T06:00:50;11.90;99.90
14755;DHT22;7469;50.906;6.952;2022-10-31T06:03:20;11.90;99.90
14755;DHT22;7469;50.906;6.952;2022-10-31T06:05:48;11.90;99.90
14755;DHT22;7469;50.906;6.952;2022-10-31T06:08:20;11.90;99.90
14755;DHT22;7469;50.906;6.952;2022-10-31T06:10:48;11.80;99.90
14755;DHT22;7469;50.906;6.952;2022-10-31T06:13:16;11.80;99.90
14755;DHT22;7469;50.906;6.952;2022-10-31T06:15:44;11.80;99.90
14755;DHT22;7469;50.906;6.952;2022-10-31T06:18:12;11.80;99.90
14755;DHT22;7469;50.906;6.952;2022-10-31T06:20:41;11.80;99.90
14755;DHT22;7469;50.906;6.952;2022-10-31T06:23:09;11.80;99.90
14755;DHT22;7469;50.906;6.952;2022-10-31T06:25:37;11.80;99.90
14755;DHT22;7469;50.906;6.952;2022-10-31T06:28:05;11.70;99.90
14755;DHT22;7469;50.906;6.952;2022-10-31T06:30:33;11.80;99.90
14755;DHT22;7469;50.906;6.952;2022-10-31T06:33:02;11.80;99.90
14755;DHT22;7469;50.906;6.952;2022-10-31T06:35:30;11.80;99.90
14755;DHT22;7469;50.906;6.952;2022-10-31T06:37:59;11.80;99.90
14755;DHT22;7469;50.906;6.952;2022-10-31T06:40:28;11.80;99.90
14755;DHT22;7469;50.906;6.952;2022-10-31T06:42:59;11.80;99.90
14755;DHT22;7469;50.906;6.952;2022-10-31T06:45:27;11.70;99.90
14755;DHT22;7469;50.906;6.952;2022-10-31T06:47:56;11.80;99.90
14755;DHT22;7469;50.906;6.952;2022-10-31T06:50:44;11.70;99.90
14755;DHT22;7469;50.906;6.952;2022-10-31T06:53:13;11.80;99.90
14755;DHT22;7469;50.906;6.952;2022-10-31T06:55:42;11.80;99.90
14755;DHT22;7469;50.906;6.952;2022-10-31T06:58:10;11.80;99.90
14755;DHT22;7469;50.906;6.952;2022-10-31T07:00:39;11.80;99.90
14755;DHT22;7469;50.906;6.952;2022-10-31T07:03:10;11.90;99.90
14755;DHT22;7469;50.906;6.952;2022-10-31T07:05:38;11.90;99.90
14755;DHT22;7469;50.906;6.952;2022-10-31T07:08:08;11.90;99.90
14755;DHT22;7469;50.906;6.952;2022-10-31T07:10:38;12.00;99.90
14755;DHT22;7469;50.906;6.952;2022-10-31T07:13:10;12.00;99.90
14755;DHT22;7469;50.906;6.952;2022-10-31T07:15:40;12.10;99.90
14755;DHT22;7469;50.906;6.952;2022-10-31T07:18:10;12.10;99.90
14755;DHT22;7469;50.906;6.952;2022-10-31T07:20:38;12.20;99.90
14755;DHT22;7469;50.906;6.952;2022-10-31T07:23:08;12.20;99.90
14755;DHT22;7469;50.906;6.952;2022-10-31T07:25:37;12.30;99.90
14755;DHT22;7469;50.906;6.952;2022-10-31T07:28:06;12.40;99.90
14755;DHT22;7469;50.906;6.952;2022-10-31T07:30:34;12.50;99.90
14755;DHT22;7469;50.906;6.952;2022-10-31T07:33:02;12.60;99.90
14755;DHT22;7469;50.906;6.952;2022-10-31T07:35:30;12.70;99.90
14755;DHT22;7469;50.906;6.952;2022-10-31T07:38:07;12.70;99.90
14755;DHT22;7469;50.906;6.952;2022-10-31T07:40:36;12.80;99.90
14755;DHT22;7469;50.906;6.952;2022-10-31T07:43:04;12.80;99.90
14755;DHT22;7469;50.906;6.952;2022-10-31T07:45:38;12.80;99.90
14755;DHT22;7469;50.906;6.952;2022-10-31T07:48:06;12.90;99.90
14755;DHT22;7469;50.906;6.952;2022-10-31T07:50:34;13.00;99.90
14755;DHT22;7469;50.906;6.952;2022-10-31T07:53:04;13.10;99.90
14755;DHT22;7469;50.906;6.952;2022-10-31T07:55:33;13.10;99.90
14755;DHT22;7469;50.906;6.952;2022-10-31T07:58:03;13.20;99.90
14755;DHT22;7469;50.906;6.952;2022-10-31T08:00:33;13.20;99.90
14755;DHT22;7469;50.906;6.952;2022-10-31T08:03:03;13.30;99.90
14755;DHT22;7469;50.906;6.952;2022-10-31T08:05:32;13.30;99.90
14755;DHT22;7469;50.906;6.952;2022-10-31T08:08:01;13.40;99.90
14755;DHT22;7469;50.906;6.952;2022-10-31T08:10:29;13.40;99.90
14755;DHT22;7469;50.906;6.952;2022-10-31T08:12:58;13.50;99.90
14755;DHT22;7469;50.906;6.952;2022-10-31T08:15:28;13.50;99.90
14755;DHT22;7469;50.906;6.952;2022-10-31T08:17:56;13.50;99.90
14755;DHT22;7469;50.906;6.952;2022-10-31T08:20:24;13.60;99.90
14755;DHT22;7469;50.906;6.952;2022-10-31T08:22:56;13.60;99.90
14755;DHT22;7469;50.906;6.952;2022-10-31T08:25:25;13.70;99.90
14755;DHT22;7469;50.906;6.952;2022-10-31T08:27:58;13.70;99.90
14755;DHT22;7469;50.906;6.952;2022-10-31T08:30:30;13.70;99.90
14755;DHT22;7469;50.906;6.952;2022-10-31T08:33:00;13.70;99.90
14755;DHT22;7469;50.906;6.952;2022-10-31T08:35:28;13.80;99.90
14755;DHT22;7469;50.906;6.952;2022-10-31T08:37:56;13.80;99.90
14755;DHT22;7469;50.906;6.952;2022-10-31T08:40:27;13.90;99.90
14755;DHT22;7469;50.906;6.952;2022-10-31T08:42:56;13.90;99.90
14755;DHT22;7469;50.906;6.952;2022-10-31T08:45:25;14.00;99.90
14755;DHT22;7469;50.906;6.952;2022-10-31T08:47:58;14.00;99.90
14755;DHT22;7469;50.906;6.952;2022-10-31T08:50:28;14.10;99.90
14755;DHT22;7469;50.906;6.952;2022-10-31T08:53:00;14.10;99.90
14755;DHT22;7469;50.906;6.952;2022-10-31T08:55:32;14.10;99.90
14755;DHT22;7469;50.906;6.952;2022-10-31T08:58:01;14.20;99.90
14755;DHT22;7469;50.906;6.952;2022-10-31T09:00:29;14.30;99.90
14755;DHT22;7469;50.906;6.952;2022-10-31T09:03:00;14.40;99.90
14755;DHT22;7469;50.906;6.952;2022-10-31T09:05:28;14.40;99.90
14755;DHT22;7469;50.906;6.952;2022-10-31T09:07:57;14.50;99.90
14755;DHT22;7469;50.906;6.952;2022-10-31T09:10:27;14.60;99.90
14755;DHT22;7469;50.906;6.952;2022-10-31T09:12:55;14.60;99.90
14755;DHT22;7469;50.906;6.952;2022-10-31T09:15:24;14.70;99.90
14755;DHT22;7469;50.906;6.952;2022-10-31T09:17:52;14.70;99.90
14755;DHT22;7469;50.906;6.952;2022-10-31T09:20:22;14.90;99.90
14755;DHT22;7469;50.906;6.952;2022-10-31T09:22:56;14.90;99.90
14755;DHT22;7469;50.906;6.952;2022-10-31T09:25:25;15.00;99.90
14755;DHT22;7469;50.906;6.952;2022-10-31T09:27:55;15.20;99.90
14755;DHT22;7469;50.906;6.952;2022-10-31T09:30:25;15.30;99.90
14755;DHT22;7469;50.906;6.952;2022-10-31T09:32:58;15.50;99.90
14755;DHT22;7469;50.906;6.952;2022-10-31T09:35:28;15.80;99.90
14755;DHT22;7469;50.906;6.952;2022-10-31T09:37:57;16.10;99.90
14755;DHT22;7469;50.906;6.952;2022-10-31T09:40:31;16.50;99.90
14755;DHT22;7469;50.906;6.952;2022-10-31T09:43:06;17.10;99.90
14755;DHT22;7469;50.906;6.952;2022-10-31T09:45:41;17.60;99.90
14755;DHT22;7469;50.906;6.952;2022-10-31T09:48:21;18.20;99.90
14755;DHT22;7469;50.906;6.952;2022-10-31T09:50:57;18.90;99.90
14755;DHT22;7469;50.906;6.952;2022-10-31T09:53:31;19.80;99.90
14755;DHT22;7469;50.906;6.952;2022-10-31T09:56:01;20.70;99.90
14755;DHT22;7469;50.906;6.952;2022-10-31T09:58:36;21.60;99.90
14755;DHT22;7469;50.906;6.952;2022-10-31T10:01:05;22.70;99.90
14755;DHT22;7469;50.906;6.952;2022-10-31T10:03:37;23.70;99.90
14755;DHT22;7469;50.906;6.952;2022-10-31T10:06:12;24.50;99.90
14755;DHT22;7469;50.906;6.952;2022-10-31T10:08:41;25.30;99.90
14755;DHT22;7469;50.906;6.952;2022-10-31T10:11:24;26.00;99.90
14755;DHT22;7469;50.906;6.952;2022-10-31T10:14:04;26.40;99.90
14755;DHT22;7469;50.906;6.952;2022-10-31T10:16:50;26.60;99.90
14755;DHT22;7469;50.906;6.952;2022-10-31T10:19:31;26.50;99.90
14755;DHT22;7469;50.906;6.952;2022-10-31T10:22:11;26.40;99.00
14755;DHT22;7469;50.906;6.952;2022-10-31T10:24:53;26.50;98.40
14755;DHT22;7469;50.906;6.952;2022-10-31T10:27:38;26.90;97.80
14755;DHT22;7469;50.906;6.952;2022-10-31T10:30:14;27.10;96.10
14755;DHT22;7469;50.906;6.952;2022-10-31T10:32:45;27.00;95.60
14755;DHT22;7469;50.906;6.952;2022-10-31T10:35:23;26.40;94.40
14755;DHT22;7469;50.906;6.952;2022-10-31T10:37:57;25.50;95.00
14755;DHT22;7469;50.906;6.952;2022-10-31T10:40:28;24.90;95.70
14755;DHT22;7469;50.906;6.952;2022-10-31T10:43:07;24.60;96.50
14755;DHT22;7469;50.906;6.952;2022-10-31T10:45:50;24.40;97.00
14755;DHT22;7469;50.906;6.952;2022-10-31T10:48:43;24.00;97.30
14755;DHT22;7469;50.906;6.952;2022-10-31T10:51:20;23.60;97.90
14755;DHT22;7469;50.906;6.952;2022-10-31T10:54:31;23.20;98.40
14755;DHT22;7469;50.906;6.952;2022-10-31T10:57:11;22.80;99.10
14755;DHT22;7469;50.906;6.952;2022-10-31T10:59:45;22.60;99.80
14755;DHT22;7469;50.906;6.952;2022-10-31T11:02:17;22.40;99.90
14755;DHT22;7469;50.906;6.952;2022-10-31T11:04:48;22.10;99.90
14755;DHT22;7469;50.906;6.952;2022-10-31T11:07:17;21.90;99.90
14755;DHT22;7469;50.906;6.952;2022-10-31T11:09:47;21.60;99.90
14755;DHT22;7469;50.906;6.952;2022-10-31T11:12:20;21.30;99.90
14755;DHT22;7469;50.906;6.952;2022-10-31T11:14:51;21.10;99.90
14755;DHT22;7469;50.906;6.952;2022-10-31T11:17:25;20.80;99.90
14755;DHT22;7469;50.906;6.952;2022-10-31T11:20:02;20.70;99.90
14755;DHT22;7469;50.906;6.952;2022-10-31T11:22:31;20.50;99.90
14755;DHT22;7469;50.906;6.952;2022-10-31T11:25:00;20.30;99.90
14755;DHT22;7469;50.906;6.952;2022-10-31T11:27:28;20.10;99.90
14755;DHT22;7469;50.906;6.952;2022-10-31T11:30:04;20.00;99.90
14755;DHT22;7469;50.906;6.952;2022-10-31T11:32:33;19.90;99.90
14755;DHT22;7469;50.906;6.952;2022-10-31T11:35:03;19.80;99.90
14755;DHT22;7469;50.906;6.952;2022-10-31T11:37:41;19.70;99.90
14755;DHT22;7469;50.906;6.952;2022-10-31T11:40:18;19.80;99.90
14755;DHT22;7469;50.906;6.952;2022-10-31T11:42:47;19.80;99.90
14755;DHT22;7469;50.906;6.952;2022-10-31T11:45:17;19.80;99.90
14755;DHT22;7469;50.906;6.952;2022-10-31T11:47:48;19.90;99.90
14755;DHT22;7469;50.906;6.952;2022-10-31T11:50:27;19.90;99.90
14755;DHT22;7469;50.906;6.952;2022-10-31T11:52:55;20.00;99.90
14755;DHT22;7469;50.906;6.952;2022-10-31T11:55:33;20.00;99.90
14755;DHT22;7469;50.906;6.952;2022-10-31T11:58:01;20.00;99.90
14755;DHT22;7469;50.906;6.952;2022-10-31T12:00:31;20.00;99.90
14755;DHT22;7469;50.906;6.952;2022-10-31T12:03:13;20.00;99.90
14755;DHT22;7469;50.906;6.952;2022-10-31T12:05:44;19.90;99.90
14755;DHT22;7469;50.906;6.952;2022-10-31T12:08:13;19.80;99.90
14755;DHT22;7469;50.906;6.952;2022-10-31T12:10:52;19.70;99.90
14755;DHT22;7469;50.906;6.952;2022-10-31T12:13:32;19.70;99.90
14755;DHT22;7469;50.906;6.952;2022-10-31T12:16:06;19.60;99.90
14755;DHT22;7469;50.906;6.952;2022-10-31T12:18:58;19.60;99.90
14755;DHT22;7469;50.906;6.952;2022-10-31T12:21:39;19.50;99.90
14755;DHT22;7469;50.906;6.952;2022-10-31T12:24:19;19.50;99.90
14755;DHT22;7469;50.906;6.952;2022-10-31T12:26:57;19.50;99.90
14755;DHT22;7469;50.906;6.952;2022-10-31T12:29:52;19.40;99.90
14755;DHT22;7469;50.906;6.952;2022-10-31T12:32:33;19.40;99.90
14755;DHT22;7469;50.906;6.952;2022-10-31T12:35:17;19.50;99.90
14755;DHT22;7469;50.906;6.952;2022-10-31T12:37:59;19.50;99.90
14755;DHT22;7469;50.906;6.952;2022-10-31T12:40:43;19.50;99.90
14755;DHT22;7469;50.906;6.952;2022-10-31T12:43:34;19.50;99.90
14755;DHT22;7469;50.906;6.952;2022-10-31T12:46:04;19.50;99.90
14755;DHT22;7469;50.906;6.952;2022-10-31T12:48:52;19.50;99.90
14755;DHT22;7469;50.906;6.952;2022-10-31T12:51:33;19.60;99.90
14755;DHT22;7469;50.906;6.952;2022-10-31T12:54:32;19.70;99.90
14755;DHT22;7469;50.906;6.952;2022-10-31T12:57:10;19.70;99.90
14755;DHT22;7469;50.906;6.952;2022-10-31T12:59:44;19.60;99.90
14755;DHT22;7469;50.906;6.952;2022-10-31T13:02:18;19.50;99.90
14755;DHT22;7469;50.906;6.952;2022-10-31T13:04:50;19.40;99.90
14755;DHT22;7469;50.906;6.952;2022-10-31T13:07:24;19.40;99.90
14755;DHT22;7469;50.906;6.952;2022-10-31T13:09:56;19.50;99.90
14755;DHT22;7469;50.906;6.952;2022-10-31T13:12:27;19.50;99.90
14755;DHT22;7469;50.906;6.952;2022-10-31T13:15:11;19.50;99.90
14755;DHT22;7469;50.906;6.952;2022-10-31T13:17:44;19.50;99.90
14755;DHT22;7469;50.906;6.952;2022-10-31T13:20:20;19.40;99.90
14755;DHT22;7469;50.906;6.952;2022-10-31T13:22:52;19.50;99.90
14755;DHT22;7469;50.906;6.952;2022-10-31T13:25:24;19.50;99.90
14755;DHT22;7469;50.906;6.952;2022-10-31T13:27:55;19.50;99.90
14755;DHT22;7469;50.906;6.952;2022-10-31T13:30:27;19.50;99.90
14755;DHT22;7469;50.906;6.952;2022-10-31T13:33:01;19.50;99.90
14755;DHT22;7469;50.906;6.952;2022-10-31T13:35:35;19.50;99.90
14755;DHT22;7469;50.906;6.952;2022-10-31T13:38:14;19.40;99.90
14755;DHT22;7469;50.906;6.952;2022-10-31T13:40:50;19.40;99.90
14755;DHT22;7469;50.906;6.952;2022-10-31T13:43:27;19.40;99.90
14755;DHT22;7469;50.906;6.952;2022-10-31T13:45:57;19.30;99.90
14755;DHT22;7469;50.906;6.952;2022-10-31T13:48:37;19.30;99.90
14755;DHT22;7469;50.906;6.952;2022-10-31T13:51:09;19.30;99.90
14755;DHT22;7469;50.906;6.952;2022-10-31T13:53:43;19.30;99.90
14755;DHT22;7469;50.906;6.952;2022-10-31T13:56:22;19.30;99.90
14755;DHT22;7469;50.906;6.952;2022-10-31T13:59:16;19.20;99.90
14755;DHT22;7469;50.906;6.952;2022-10-31T14:01:50;19.20;99.90
14755;DHT22;7469;50.906;6.952;2022-10-31T14:04:21;19.10;99.90
14755;DHT22;7469;50.906;6.952;2022-10-31T14:06:56;19.10;99.90
14755;DHT22;7469;50.906;6.952;2022-10-31T14:09:33;19.10;99.90
14755;DHT22;7469;50.906;6.952;2022-10-31T14:12:06;19.10;99.90
14755;DHT22;7469;50.906;6.952;2022-10-31T14:14:46;19.10;99.90
14755;DHT22;7469;50.906;6.952;2022-10-31T14:17:19;19.00;99.90
14755;DHT22;7469;50.906;6.952;2022-10-31T14:20:19;19.00;99.90
14755;DHT22;7469;50.906;6.952;2022-10-31T14:22:49;19.00;99.90
14755;DHT22;7469;50.906;6.952;2022-10-31T14:25:28;19.00;99.90
14755;DHT22;7469;50.906;6.952;2022-10-31T14:27:57;18.90;99.90
14755;DHT22;7469;50.906;6.952;2022-10-31T14:30:28;18.90;99.90
14755;DHT22;7469;50.906;6.952;2022-10-31T14:33:01;18.90;99.90
14755;DHT22;7469;50.906;6.952;2022-10-31T14:35:43;18.90;99.90
14755;DHT22;7469;50.906;6.952;2022-10-31T14:38:35;18.90;99.90
14755;DHT22;7469;50.906;6.952;2022-10-31T14:44:26;18.90;99.90
14755;DHT22;7469;50.906;6.952;2022-10-31T14:47:02;18.90;99.90
14755;DHT22;7469;50.906;6.952;2022-10-31T14:50:00;18.90;99.90
14755;DHT22;7469;50.906;6.952;2022-10-31T14:52:32;18.90;99.90
14755;DHT22;7469;50.906;6.952;2022-10-31T14:55:06;18.90;99.90
14755;DHT22;7469;50.906;6.952;2022-10-31T14:57:37;18.90;99.90
14755;DHT22;7469;50.906;6.952;2022-10-31T15:00:12;18.90;99.90
14755;DHT22;7469;50.906;6.952;2022-10-31T15:02:49;18.90;99.90
14755;DHT22;7469;50.906;6.952;2022-10-31T15:05:21;18.90;99.90
14755;DHT22;7469;50.906;6.952;2022-10-31T15:07:50;18.90;99.90
14755;DHT22;7469;50.906;6.952;2022-10-31T15:10:21;18.90;99.90
14755;DHT22;7469;50.906;6.952;2022-10-31T15:12:49;18.80;99.90
14755;DHT22;7469;50.906;6.952;2022-10-31T15:15:19;18.90;99.90
14755;DHT22;7469;50.906;6.952;2022-10-31T15:17:49;18.90;99.90
14755;DHT22;7469;50.906;6.952;2022-10-31T15:20:22;18.80;99.90
14755;DHT22;7469;50.906;6.952;2022-10-31T15:22:50;18.80;99.90
14755;DHT22;7469;50.906;6.952;2022-10-31T15:25:20;18.80;99.90
14755;DHT22;7469;50.906;6.952;2022-10-31T15:27:49;18.80;99.90
14755;DHT22;7469;50.906;6.952;2022-10-31T15:30:22;18.80;99.90
14755;DHT22;7469;50.906;6.952;2022-10-31T15:32:51;18.70;99.90
14755;DHT22;7469;50.906;6.952;2022-10-31T15:35:28;18.70;99.90
14755;DHT22;7469;50.906;6.952;2022-10-31T15:37:57;18.70;99.90
14755;DHT22;7469;50.906;6.952;2022-10-31T15:40:27;18.60;99.90
14755;DHT22;7469;50.906;6.952;2022-10-31T15:42:58;18.60;99.90
14755;DHT22;7469;50.906;6.952;2022-10-31T15:45:28;18.50;99.90
14755;DHT22;7469;50.906;6.952;2022-10-31T15:47:58;18.40;99.90
14755;DHT22;7469;50.906;6.952;2022-10-31T15:50:31;18.40;99.90
14755;DHT22;7469;50.906;6.952;2022-10-31T15:53:00;18.30;99.90
14755;DHT22;7469;50.906;6.952;2022-10-31T15:55:32;18.20;99.90
14755;DHT22;7469;50.906;6.952;2022-10-31T15:58:02;18.20;99.90
14755;DHT22;7469;50.906;6.952;2022-10-31T16:00:32;18.10;99.90
14755;DHT22;7469;50.906;6.952;2022-10-31T16:03:03;18.10;99.90
14755;DHT22;7469;50.906;6.952;2022-10-31T16:05:38;18.00;99.90
14755;DHT22;7469;50.906;6.952;2022-10-31T16:08:24;18.00;99.90
14755;DHT22;7469;50.906;6.952;2022-10-31T16:10:54;17.90;99.90
14755;DHT22;7469;50.906;6.952;2022-10-31T16:13:25;17.90;99.90
14755;DHT22;7469;50.906;6.952;2022-10-31T16:15:56;17.80;99.90
14755;DHT22;7469;50.906;6.952;2022-10-31T16:18:45;17.80;99.90
14755;DHT22;7469;50.906;6.952;2022-10-31T16:21:14;17.70;99.90